createdAt,value
2017-03-18T00:00:08.189Z,995.6
2017-03-18T00:01:10.050Z,995.5
2017-03-18T00:02:12.484Z,995.6
2017-03-18T00:03:14.339Z,995.5
2017-03-18T00:04:16.194Z,995.5
2017-03-18T00:05:18.386Z,995.4
2017-03-18T00:06:20.577Z,995.3
2017-03-18T00:07:22.799Z,995.4
2017-03-18T00:08:24.989Z,995.4
2017-03-18T00:09:27.336Z,995.4
2017-03-18T00:10:29.890Z,995.4
2017-03-18T00:11:31.743Z,995.4
2017-03-18T00:12:33.594Z,995.3
2017-03-18T00:13:36.459Z,995.3
2017-03-18T00:14:38.303Z,995.3
2017-03-18T00:15:40.161Z,995.3
2017-03-18T00:16:42.019Z,995.3
2017-03-18T00:17:43.874Z,995.2
2017-03-18T00:18:46.213Z,995.2
2017-03-18T00:19:48.067Z,995.1
2017-03-18T00:20:49.921Z,995.2
2017-03-18T00:21:51.770Z,995.1
2017-03-18T00:22:53.619Z,995.1
2017-03-18T00:23:56.557Z,995
2017-03-18T00:24:58.415Z,995.1
2017-03-18T00:26:00.277Z,995.1
2017-03-18T00:27:02.126Z,995
2017-03-18T00:28:03.976Z,995
2017-03-18T00:29:05.843Z,995
2017-03-18T00:30:08.373Z,994.9
2017-03-18T00:31:10.226Z,994.9
2017-03-18T00:32:12.071Z,994.9
2017-03-18T00:33:14.275Z,994.9
2017-03-18T00:34:17.624Z,994.8
2017-03-18T00:35:19.486Z,994.8
2017-03-18T00:36:21.674Z,994.8
2017-03-18T00:37:23.524Z,994.7
2017-03-18T00:38:25.641Z,994.8
2017-03-18T00:39:27.845Z,994.7
2017-03-18T00:40:30.021Z,994.6
2017-03-18T00:41:31.878Z,994.7
2017-03-18T00:42:33.730Z,994.6
2017-03-18T00:43:36.280Z,994.5
2017-03-18T00:44:38.484Z,994.6
2017-03-18T00:45:41.198Z,994.5
2017-03-18T00:46:43.263Z,994.4
2017-03-18T00:47:45.120Z,994.5
2017-03-18T00:48:46.977Z,994.5
2017-03-18T00:49:49.987Z,994.4
2017-03-18T00:50:52.165Z,994.4
2017-03-18T00:51:54.026Z,994.4
2017-03-18T00:52:56.205Z,994.3
2017-03-18T00:53:58.390Z,994.3
2017-03-18T00:55:00.584Z,994.3
2017-03-18T00:56:02.433Z,994.2
2017-03-18T00:57:05.139Z,994.2
2017-03-18T00:58:07.669Z,994.2
2017-03-18T00:59:09.857Z,994.1
2017-03-18T01:00:12.044Z,994.1
2017-03-18T01:01:13.894Z,994.1
2017-03-18T01:02:15.743Z,994.1
2017-03-18T01:03:17.606Z,994.1
2017-03-18T01:04:19.462Z,994.1
2017-03-18T01:05:21.310Z,994
2017-03-18T01:06:23.240Z,993.9
2017-03-18T01:07:25.091Z,994
2017-03-18T01:08:27.269Z,994
2017-03-18T01:09:29.119Z,994
2017-03-18T01:10:30.964Z,994
2017-03-18T01:11:32.936Z,993.9
2017-03-18T01:12:34.791Z,993.9
2017-03-18T01:13:36.639Z,993.9
2017-03-18T01:14:38.488Z,993.8
2017-03-18T01:15:40.338Z,993.7
2017-03-18T01:16:42.536Z,993.8
2017-03-18T01:17:44.379Z,993.8
2017-03-18T01:18:46.580Z,993.7
2017-03-18T01:19:49.117Z,993.6
2017-03-18T01:20:51.306Z,993.7
2017-03-18T01:21:53.734Z,993.6
2017-03-18T01:22:55.578Z,993.6
2017-03-18T01:23:57.437Z,993.5
2017-03-18T01:24:59.650Z,993.6
2017-03-18T01:26:01.841Z,993.5
2017-03-18T01:27:03.688Z,993.5
2017-03-18T01:28:05.545Z,993.4
2017-03-18T01:29:07.404Z,993.5
2017-03-18T01:30:09.586Z,993.5
2017-03-18T01:31:11.436Z,993.4
2017-03-18T01:32:13.280Z,993.4
2017-03-18T01:33:15.137Z,993.3
2017-03-18T01:34:18.564Z,993.3
2017-03-18T01:35:20.748Z,993.3
2017-03-18T01:36:22.976Z,993.2
2017-03-18T01:37:24.816Z,993.2
2017-03-18T01:38:27.257Z,993.2
2017-03-18T01:39:29.128Z,993.1
2017-03-18T01:40:30.979Z,993
2017-03-18T01:41:32.818Z,993
2017-03-18T01:42:34.671Z,993
2017-03-18T01:43:37.197Z,992.9
2017-03-18T01:44:39.797Z,992.9
2017-03-18T01:45:42.001Z,992.8
2017-03-18T01:46:43.848Z,992.9
2017-03-18T01:47:45.699Z,992.7
2017-03-18T01:48:48.065Z,992.8
2017-03-18T01:49:50.269Z,992.7
2017-03-18T01:50:52.790Z,992.7
2017-03-18T01:51:54.642Z,992.7
2017-03-18T01:52:57.196Z,992.7
2017-03-18T01:53:59.391Z,992.6
2017-03-18T01:55:01.234Z,992.6
2017-03-18T01:56:03.583Z,992.6
2017-03-18T01:57:05.423Z,992.5
2017-03-18T01:58:07.278Z,992.5
2017-03-18T01:59:09.809Z,992.4
2017-03-18T02:00:11.661Z,992.4
2017-03-18T02:01:13.500Z,992.4
2017-03-18T02:02:15.345Z,992.2
2017-03-18T02:03:17.191Z,992.2
2017-03-18T02:04:19.051Z,992.2
2017-03-18T02:05:20.925Z,992.2
2017-03-18T02:06:23.122Z,992.2
2017-03-18T02:07:25.324Z,992.2
2017-03-18T02:08:27.165Z,992.2
2017-03-18T02:09:29.364Z,992.2
2017-03-18T02:10:31.217Z,992.1
2017-03-18T02:11:33.069Z,992
2017-03-18T02:12:35.253Z,992
2017-03-18T02:13:37.776Z,991.9
2017-03-18T02:14:39.970Z,991.9
2017-03-18T02:15:41.824Z,992
2017-03-18T02:16:43.662Z,992.1
2017-03-18T02:17:45.519Z,992
2017-03-18T02:18:47.711Z,992
2017-03-18T02:19:49.922Z,992
2017-03-18T02:20:52.439Z,991.9
2017-03-18T02:21:54.295Z,991.9
2017-03-18T02:22:56.473Z,991.8
2017-03-18T02:23:58.330Z,991.8
2017-03-18T02:25:00.866Z,991.7
2017-03-18T02:26:02.720Z,991.7
2017-03-18T02:27:04.566Z,991.6
2017-03-18T02:28:06.408Z,991.5
2017-03-18T02:29:08.600Z,991.5
2017-03-18T02:30:10.782Z,991.6
2017-03-18T02:31:12.639Z,991.5
2017-03-18T02:32:14.484Z,991.6
2017-03-18T02:33:16.335Z,991.4
2017-03-18T10:19:33.958Z,986.6
2017-03-18T10:20:36.506Z,986.8
2017-03-18T10:21:38.699Z,986.7
2017-03-18T10:22:40.554Z,986.9
2017-03-18T10:23:42.886Z,986.9
2017-03-18T10:24:45.432Z,986.9
2017-03-18T10:25:47.288Z,987
2017-03-18T10:26:49.613Z,987
2017-03-18T10:27:51.847Z,987.1
2017-03-18T10:28:54.059Z,987.1
2017-03-18T10:29:56.256Z,986.7
2017-03-18T10:30:58.126Z,987.2
2017-03-18T10:32:00.323Z,987.4
2017-03-18T10:33:02.187Z,987.2
2017-03-18T10:34:04.391Z,987.3
2017-03-18T10:35:06.257Z,987.1
2017-03-18T10:36:08.195Z,987.5
2017-03-18T10:37:10.591Z,987.4
2017-03-18T10:38:12.473Z,987.2
2017-03-18T10:39:14.327Z,987.5
2017-03-18T10:40:16.203Z,987.6
2017-03-18T10:41:18.075Z,987.6
2017-03-18T10:42:19.926Z,987.7
2017-03-18T10:43:21.772Z,987.6
2017-03-18T10:44:23.973Z,987.8
2017-03-18T10:45:26.509Z,987.9
2017-03-18T10:46:28.357Z,987.7
2017-03-18T10:47:30.272Z,987.6
2017-03-18T10:48:32.140Z,987.7
2017-03-18T10:49:34.661Z,987.8
2017-03-18T10:50:36.856Z,988
2017-03-18T10:51:38.711Z,987.9
2017-03-18T10:52:40.589Z,988.1
2017-03-18T10:53:43.140Z,988.1
2017-03-18T10:54:45.381Z,988.1
2017-03-18T10:55:47.233Z,988.1
2017-03-18T10:56:49.093Z,988.2
2017-03-18T10:57:50.943Z,988.3
2017-03-18T10:58:52.790Z,988.4
2017-03-18T10:59:54.988Z,988.5
2017-03-18T11:00:56.845Z,988.5
2017-03-18T11:01:58.704Z,988.5
2017-03-18T11:03:00.899Z,988.6
2017-03-18T11:04:03.195Z,988.6
2017-03-18T11:05:05.402Z,988.6
2017-03-18T11:06:07.604Z,988.8
2017-03-18T11:07:09.459Z,988.8
2017-03-18T11:08:11.664Z,988.9
2017-03-18T11:09:13.524Z,989
2017-03-18T11:10:15.376Z,989
2017-03-18T11:11:17.228Z,989
2017-03-18T11:12:19.084Z,989
2017-03-18T11:13:21.225Z,989.3
2017-03-18T11:14:23.098Z,989.2
2017-03-18T11:15:24.984Z,989.3
2017-03-18T11:16:27.289Z,989.4
2017-03-18T11:17:29.142Z,989.4
2017-03-18T11:18:30.989Z,989.6
2017-03-18T11:19:32.841Z,989.6
2017-03-18T11:20:34.702Z,989.4
2017-03-18T11:21:37.459Z,989.6
2017-03-18T11:22:39.319Z,989.8
2017-03-18T11:23:41.194Z,989.7
2017-03-18T11:24:43.374Z,989.6
2017-03-18T11:25:45.246Z,989.7
2017-03-18T11:26:47.106Z,989.8
2017-03-18T11:27:48.973Z,989.7
2017-03-18T11:28:50.818Z,989.9
2017-03-18T11:29:52.695Z,990.1
2017-03-18T11:30:54.908Z,989.7
2017-03-18T11:31:56.761Z,990
2017-03-18T11:32:58.623Z,989.9
2017-03-18T11:34:00.475Z,990.1
2017-03-18T11:35:02.346Z,990
2017-03-18T11:36:04.207Z,990.1
2017-03-18T11:37:06.065Z,990.1
2017-03-18T11:38:08.255Z,990.1
2017-03-18T11:39:11.042Z,990.1
2017-03-18T11:40:13.241Z,990.2
2017-03-18T11:41:15.089Z,990.2
2017-03-18T11:42:16.943Z,990.2
2017-03-18T11:43:18.805Z,990.1
2017-03-18T11:44:20.653Z,990.3
2017-03-18T11:45:22.509Z,990.4
2017-03-18T11:46:24.350Z,990.4
2017-03-18T11:47:26.574Z,990.4
2017-03-18T11:48:28.434Z,990.5
2017-03-18T11:49:30.648Z,990.6
2017-03-18T11:50:32.506Z,990.7
2017-03-18T11:51:34.353Z,990.6
2017-03-18T11:52:36.201Z,990.5
2017-03-18T11:53:38.143Z,990.7
2017-03-18T11:54:40.003Z,990.7
2017-03-18T11:55:42.206Z,990.7
2017-03-18T11:56:44.065Z,990.8
2017-03-18T11:57:45.927Z,990.9
2017-03-18T11:58:47.798Z,991
2017-03-18T11:59:49.655Z,991
2017-03-18T12:00:51.506Z,991
2017-03-18T12:01:53.359Z,990.8
2017-03-18T12:02:55.237Z,990.9
2017-03-18T12:03:57.100Z,991
2017-03-18T12:04:59.659Z,990.9
2017-03-18T12:06:01.521Z,991.1
2017-03-18T12:07:03.780Z,991.1
2017-03-18T12:08:05.646Z,991
2017-03-18T12:09:07.843Z,991
2017-03-18T12:10:09.707Z,991.1
2017-03-18T12:11:11.581Z,991.1
2017-03-18T12:12:13.454Z,991.1
2017-03-18T12:13:15.302Z,991.2
2017-03-18T12:14:17.506Z,991.1
2017-03-18T12:15:19.364Z,991.2
2017-03-18T12:16:21.224Z,991.1
2017-03-18T12:17:23.075Z,991.2
2017-03-18T12:18:24.938Z,991.2
2017-03-18T12:19:27.141Z,991.2
2017-03-18T12:20:29.006Z,991.4
2017-03-18T12:21:31.208Z,991.1
2017-03-18T12:22:33.056Z,991.3
2017-03-18T12:23:34.910Z,991.3
2017-03-18T12:24:36.772Z,991.5
2017-03-18T12:25:38.984Z,991.3
2017-03-18T12:26:40.840Z,991.4
2017-03-18T12:27:42.700Z,991.5
2017-03-18T12:28:44.912Z,991.5
2017-03-18T12:29:46.779Z,991.6
2017-03-18T12:30:48.646Z,991.6
2017-03-18T12:31:50.507Z,991.6
2017-03-18T12:32:52.356Z,991.6
2017-03-18T12:33:54.654Z,991.6
2017-03-18T12:34:56.996Z,991.7
2017-03-18T12:35:59.196Z,991.8
2017-03-18T12:37:01.045Z,991.7
2017-03-18T12:38:02.901Z,991.8
2017-03-18T12:39:05.099Z,991.8
2017-03-18T12:40:06.974Z,991.9
2017-03-18T12:41:08.839Z,991.8
2017-03-18T12:42:10.699Z,991.9
2017-03-18T12:43:12.889Z,991.9
2017-03-18T12:44:14.769Z,991.8
2017-03-18T12:45:16.639Z,991.9
2017-03-18T12:46:18.503Z,992
2017-03-18T12:47:20.341Z,992.1
2017-03-18T12:48:22.207Z,992
2017-03-18T12:49:24.836Z,992.1
2017-03-18T12:50:26.711Z,992
2017-03-18T12:51:28.907Z,991.9
2017-03-18T12:52:31.096Z,991.9
2017-03-18T12:53:32.967Z,992.1
2017-03-18T12:54:34.832Z,991.9
2017-03-18T12:55:37.026Z,992.2
2017-03-18T12:56:38.881Z,991.8
2017-03-18T12:57:40.754Z,991.9
2017-03-18T12:58:42.616Z,992.1
2017-03-18T12:59:44.833Z,992.1
2017-03-18T13:00:46.694Z,992.1
2017-03-18T13:01:48.569Z,992.1
2017-03-18T13:02:50.429Z,992
2017-03-18T13:03:52.626Z,992.1
2017-03-18T13:04:54.490Z,992.1
2017-03-18T13:05:56.697Z,992.1
2017-03-18T13:06:58.911Z,992.2
2017-03-18T13:08:00.789Z,992.2
2017-03-18T13:09:02.642Z,992.2
2017-03-18T13:10:04.838Z,992.2
2017-03-18T13:11:06.730Z,992.2
2017-03-18T13:12:08.625Z,992.2
2017-03-18T13:13:10.485Z,992.2
2017-03-18T13:14:12.339Z,992.3
2017-03-18T13:15:14.195Z,992.3
2017-03-18T13:16:16.047Z,992.3
2017-03-18T13:17:17.907Z,992.3
2017-03-18T13:18:19.761Z,992.3
2017-03-18T13:19:21.967Z,992.3
2017-03-18T13:20:24.166Z,992.3
2017-03-18T13:21:26.054Z,992.3
2017-03-18T13:22:28.255Z,992.2
2017-03-18T13:23:30.113Z,992.3
2017-03-18T13:24:32.308Z,992.5
2017-03-18T13:25:34.161Z,992.4
2017-03-18T13:26:36.014Z,992.4
2017-03-18T13:27:37.865Z,992.6
2017-03-18T13:28:40.405Z,992.5
2017-03-18T13:29:42.252Z,992.6
2017-03-18T13:30:44.119Z,992.6
2017-03-18T13:31:45.965Z,992.7
2017-03-18T13:32:47.820Z,992.6
2017-03-18T13:33:50.016Z,992.6
2017-03-18T13:34:51.888Z,992.6
2017-03-18T13:35:53.748Z,992.6
2017-03-18T13:36:55.952Z,992.6
2017-03-18T13:37:57.873Z,992.6
2017-03-18T13:39:00.168Z,992.6
2017-03-18T13:40:27.084Z,992.5
2017-03-18T13:41:30.476Z,992.6
2017-03-18T13:42:32.373Z,992.5
2017-03-18T13:43:34.484Z,992.7
2017-03-18T13:44:36.826Z,992.6
2017-03-18T13:45:39.031Z,992.4
2017-03-18T13:46:40.876Z,992.6
2017-03-18T13:47:42.759Z,992.6
2017-03-18T13:48:44.958Z,992.7
2017-03-18T13:49:47.245Z,992.6
2017-03-18T13:50:49.542Z,992.6
2017-03-18T13:51:51.935Z,992.7
2017-03-18T13:52:53.891Z,992.5
2017-03-18T13:54:26.294Z,992.6
2017-03-18T13:55:29.263Z,992.6
2017-03-18T13:56:31.399Z,992.7
2017-03-18T13:57:33.744Z,992.7
2017-03-18T13:59:00.414Z,992.7
2017-03-18T14:00:30.861Z,992.8
2017-03-18T14:01:46.919Z,992.8
2017-03-18T14:03:07.461Z,992.8
2017-03-18T14:04:11.726Z,992.7
2017-03-18T14:06:05.110Z,992.8
2017-03-18T14:07:32.630Z,992.9
2017-03-18T14:08:50.128Z,992.9
2017-03-18T14:09:53.053Z,993
2017-03-18T14:11:16.874Z,993
2017-03-18T14:12:24.900Z,993
2017-03-18T14:13:26.865Z,993
2017-03-18T14:14:29.438Z,992.9
2017-03-18T14:15:31.523Z,993.1
2017-03-18T14:16:34.102Z,993
2017-03-18T14:17:36.714Z,993
2017-03-18T14:18:38.716Z,993
2017-03-18T14:19:40.924Z,993
2017-03-18T14:20:42.850Z,993.1
2017-03-18T14:21:45.161Z,993.2
2017-03-18T14:22:47.091Z,993.3
2017-03-18T14:24:00.471Z,993.3
2017-03-18T14:25:04.786Z,993.2
2017-03-18T14:26:07.171Z,993.3
2017-03-18T14:27:09.083Z,993.4
2017-03-18T14:28:11.207Z,993.4
2017-03-18T14:29:14.076Z,993.4
2017-03-18T14:30:15.937Z,993.4
2017-03-18T14:31:17.810Z,993.5
2017-03-18T14:32:37.601Z,993.5
2017-03-18T14:34:09.282Z,993.4
2017-03-18T14:35:12.126Z,993.5
2017-03-18T14:36:14.187Z,993.5
2017-03-18T14:37:17.236Z,993.5
2017-03-18T14:38:49.943Z,993.6
2017-03-18T14:39:52.591Z,993.5
2017-03-18T14:40:55.010Z,993.6
2017-03-18T14:41:56.979Z,993.5
2017-03-18T14:42:59.557Z,993.5
2017-03-18T14:44:02.225Z,993.5
2017-03-18T14:45:04.343Z,993.6
2017-03-18T14:46:06.207Z,993.5
2017-03-18T14:47:18.493Z,993.8
2017-03-18T14:48:22.206Z,993.7
2017-03-18T14:49:24.164Z,993.7
2017-03-18T14:50:26.371Z,993.8
2017-03-18T14:51:28.712Z,993.8
2017-03-18T14:52:30.668Z,994.1
2017-03-18T14:53:33.081Z,994
2017-03-18T14:54:35.525Z,994.3
2017-03-18T14:55:37.725Z,994.3
2017-03-18T14:56:40.123Z,994.4
2017-03-18T14:57:42.022Z,994.4
2017-03-18T14:58:43.917Z,994.5
2017-03-18T14:59:45.821Z,994.4
2017-03-18T15:00:47.671Z,994.2
2017-03-18T15:01:49.527Z,994.2
2017-03-18T15:02:51.403Z,994.3
2017-03-18T15:03:53.266Z,994.3
2017-03-18T15:04:55.125Z,994.3
2017-03-18T15:05:57.015Z,994.2
2017-03-18T15:06:58.891Z,994.3
2017-03-18T15:08:01.092Z,994.3
2017-03-18T15:09:03.335Z,994.3
2017-03-18T15:10:05.680Z,994.3
2017-03-18T15:11:07.553Z,994.2
2017-03-18T15:12:09.750Z,994.3
2017-03-18T15:13:11.599Z,994.3
2017-03-18T15:14:13.474Z,994.4
2017-03-18T15:15:15.666Z,994.5
2017-03-18T15:16:17.523Z,994.4
2017-03-18T15:17:19.376Z,994.4
2017-03-18T15:18:21.237Z,994.4
2017-03-18T15:19:23.100Z,994.4
2017-03-18T15:20:24.963Z,994.4
2017-03-18T15:21:27.518Z,994.5
2017-03-18T15:22:29.358Z,994.5
2017-03-18T15:23:31.569Z,994.5
2017-03-18T15:24:33.779Z,994.4
2017-03-18T15:25:35.623Z,994.4
2017-03-18T15:26:37.475Z,994.5
2017-03-18T15:27:39.671Z,994.6
2017-03-18T15:28:42.585Z,994.5
2017-03-18T15:29:44.784Z,994.6
2017-03-18T15:30:46.630Z,994.6
2017-03-18T15:31:48.487Z,994.6
2017-03-18T15:32:50.352Z,994.5
2017-03-18T15:33:53.235Z,994.6
2017-03-18T15:34:55.094Z,994.7
2017-03-18T15:35:56.955Z,994.6
2017-03-18T15:36:58.805Z,994.6
2017-03-18T15:38:01.006Z,994.6
2017-03-18T15:39:02.865Z,994.5
2017-03-18T15:40:05.412Z,994.7
2017-03-18T15:41:07.259Z,994.7
2017-03-18T15:42:09.154Z,994.6
2017-03-18T15:43:11.007Z,994.6
2017-03-18T15:44:13.215Z,994.8
2017-03-18T15:45:15.075Z,994.7
2017-03-18T15:46:17.265Z,994.7
2017-03-18T15:47:19.117Z,994.8
2017-03-18T15:48:20.974Z,994.7
2017-03-18T15:49:22.819Z,994.8
2017-03-18T15:50:24.694Z,994.8
2017-03-18T15:51:26.544Z,994.8
2017-03-18T15:52:28.412Z,994.7
2017-03-18T15:53:30.596Z,994.7
2017-03-18T15:54:32.446Z,994.9
2017-03-18T15:55:34.639Z,994.7
2017-03-18T15:56:36.831Z,994.7
2017-03-18T15:57:38.687Z,994.8
2017-03-18T15:58:40.881Z,994.9
2017-03-18T15:59:42.739Z,994.8
2017-03-18T16:00:44.621Z,994.8
2017-03-18T16:01:46.511Z,994.7
2017-03-18T16:02:48.379Z,994.8
2017-03-18T16:03:50.227Z,994.8
2017-03-18T16:04:52.082Z,994.8
2017-03-18T16:05:53.929Z,994.9
2017-03-18T16:06:55.820Z,994.9
2017-03-18T16:07:57.675Z,994.8
2017-03-18T16:08:59.532Z,994.9
2017-03-18T16:10:01.388Z,995
2017-03-18T16:11:03.584Z,994.9
2017-03-18T16:12:05.432Z,994.9
2017-03-18T16:13:07.655Z,995
2017-03-18T16:14:09.514Z,995
2017-03-18T16:15:11.381Z,995
2017-03-18T16:16:13.262Z,995
2017-03-18T16:17:15.111Z,995
2017-03-18T16:18:16.958Z,995.1
2017-03-18T16:22:12.954Z,995.1
2017-03-18T16:23:14.808Z,995.1
2017-03-18T16:24:16.662Z,995.1
2017-03-18T16:25:18.533Z,995.1
2017-03-18T16:26:20.478Z,995.2
2017-03-18T16:27:22.366Z,995.2
2017-03-18T16:28:24.226Z,995.1
2017-03-18T16:29:26.103Z,995.2
2017-03-18T16:30:27.970Z,995.2
2017-03-18T16:31:29.820Z,995.2
2017-03-18T16:32:31.663Z,995.2
2017-03-18T16:33:33.853Z,995.3
2017-03-18T16:34:36.494Z,995.4
2017-03-18T16:35:38.686Z,995.3
2017-03-18T16:36:40.581Z,995.4
2017-03-18T16:37:42.433Z,995.4
2017-03-18T16:38:44.296Z,995.3
2017-03-18T16:39:46.493Z,995.4
2017-03-18T16:40:48.344Z,995.4
2017-03-18T16:41:50.195Z,995.5
2017-03-18T16:42:52.083Z,995.5
2017-03-18T16:43:54.343Z,995.5
2017-03-18T16:44:56.961Z,995.5
2017-03-18T16:45:59.832Z,995.5
2017-03-18T16:47:01.669Z,995.5
2017-03-18T16:48:03.928Z,995.5
2017-03-18T16:49:06.110Z,995.6
2017-03-18T16:50:08.301Z,995.5
2017-03-18T16:51:10.140Z,995.6
2017-03-18T16:52:12.090Z,995.6
2017-03-18T16:53:13.932Z,995.5
2017-03-18T16:54:15.879Z,995.5
2017-03-18T16:55:17.731Z,995.7
2017-03-18T16:56:19.697Z,995.7
2017-03-18T16:57:22.242Z,995.7
2017-03-18T16:58:24.881Z,995.7
2017-03-18T16:59:27.007Z,995.7
2017-03-18T17:00:28.874Z,995.7
2017-03-18T17:01:30.759Z,995.7
2017-03-18T17:02:32.619Z,995.7
2017-03-18T17:03:34.531Z,995.7
2017-03-18T17:04:36.831Z,995.7
2017-03-18T17:05:38.672Z,995.8
2017-03-18T17:06:40.529Z,995.7
2017-03-18T17:07:42.720Z,995.7
2017-03-18T17:08:44.583Z,995.7
2017-03-18T17:09:47.004Z,995.7
2017-03-18T17:10:48.894Z,995.6
2017-03-18T17:11:50.737Z,995.7
2017-03-18T17:12:52.636Z,995.7
2017-03-18T17:13:55.512Z,995.7
2017-03-18T17:14:58.058Z,995.8
2017-03-18T17:16:00.581Z,995.8
2017-03-18T17:17:02.563Z,995.9
2017-03-18T17:18:04.410Z,996
2017-03-18T17:19:06.376Z,996
2017-03-18T17:20:08.254Z,995.9
2017-03-18T17:21:10.108Z,995.9
2017-03-18T17:22:11.954Z,996
2017-03-18T17:23:14.003Z,995.9
2017-03-18T17:24:16.257Z,996
2017-03-18T17:25:18.450Z,996
2017-03-18T17:26:20.311Z,996
2017-03-18T17:27:22.156Z,996
2017-03-18T17:28:24.450Z,996.1
2017-03-18T17:29:26.661Z,996.1
2017-03-18T17:30:28.725Z,996.1
2017-03-18T17:31:30.563Z,996.1
2017-03-18T17:32:32.414Z,996.1
2017-03-18T17:33:34.679Z,996.1
2017-03-18T17:34:36.837Z,996.1
2017-03-18T17:35:39.055Z,996.1
2017-03-18T17:36:40.901Z,996.2
2017-03-18T17:37:43.083Z,996.2
2017-03-18T17:38:45.278Z,996.2
2017-03-18T17:39:47.654Z,996.2
2017-03-18T17:40:49.965Z,996.2
2017-03-18T17:41:51.810Z,996.3
2017-03-18T17:42:53.653Z,996.3
2017-03-18T17:43:55.503Z,996.3
2017-03-18T17:44:57.879Z,996.4
2017-03-18T17:46:00.064Z,996.4
2017-03-18T17:47:02.247Z,996.4
2017-03-18T17:48:04.092Z,996.4
2017-03-18T17:49:06.075Z,996.4
2017-03-18T17:50:07.926Z,996.4
2017-03-18T17:51:09.962Z,996.4
2017-03-18T17:52:11.890Z,996.5
2017-03-18T17:53:13.736Z,996.5
2017-03-18T17:54:15.584Z,996.5
2017-03-18T17:55:17.521Z,996.6
2017-03-18T17:56:19.353Z,996.6
2017-03-18T17:57:21.192Z,996.6
2017-03-18T17:58:23.540Z,996.6
2017-03-18T17:59:25.812Z,996.6
2017-03-18T18:00:27.654Z,996.7
2017-03-18T18:01:29.575Z,996.7
2017-03-18T18:02:31.422Z,996.6
2017-03-18T18:03:33.342Z,996.7
2017-03-18T18:04:35.969Z,996.7
2017-03-18T18:05:37.871Z,996.8
2017-03-18T18:06:39.718Z,996.7
2017-03-18T18:07:41.632Z,996.7
2017-03-18T18:08:46.771Z,996.7
2017-03-18T18:09:50.226Z,996.7
2017-03-18T18:10:52.893Z,996.7
2017-03-18T18:11:54.746Z,996.7
2017-03-18T18:12:56.598Z,996.7
2017-03-18T18:13:58.919Z,996.8
2017-03-18T18:15:01.465Z,996.8
2017-03-18T18:16:03.605Z,996.8
2017-03-18T18:17:05.458Z,996.9
2017-03-18T18:18:07.316Z,996.9
2017-03-18T18:19:09.494Z,996.9
2017-03-18T18:20:11.687Z,996.9
2017-03-18T18:21:13.589Z,996.8
2017-03-18T18:22:15.942Z,996.9
2017-03-18T18:23:17.984Z,996.9
2017-03-18T18:24:20.530Z,997
2017-03-18T18:25:22.389Z,997
2017-03-18T18:26:24.955Z,997
2017-03-18T18:27:27.480Z,997
2017-03-18T18:28:29.455Z,997
2017-03-18T18:29:31.638Z,997
2017-03-18T18:30:33.490Z,997
2017-03-18T18:31:35.337Z,997.2
2017-03-18T18:32:37.180Z,997.1
2017-03-18T18:33:39.550Z,997.1
2017-03-18T18:34:41.585Z,997.1
2017-03-18T18:35:43.674Z,997.1
2017-03-18T18:36:45.863Z,997.1
2017-03-18T18:37:47.703Z,997.2
2017-03-18T18:38:49.550Z,997.1
2017-03-18T18:39:51.970Z,997.2
2017-03-18T18:40:53.985Z,997.1
2017-03-18T18:41:55.816Z,997.2
2017-03-18T18:42:57.671Z,997.2
2017-03-18T18:43:59.862Z,997.3
2017-03-18T18:45:02.053Z,997.3
2017-03-18T18:46:03.970Z,997.3
2017-03-18T18:47:06.346Z,997.4
2017-03-18T18:48:08.194Z,997.3
2017-03-18T18:49:10.762Z,997.4
2017-03-18T18:50:13.547Z,997.4
2017-03-18T18:51:15.578Z,997.4
2017-03-18T18:52:17.410Z,997.4
2017-03-18T18:53:19.263Z,997.4
2017-03-18T18:54:21.131Z,997.5
2017-03-18T18:55:22.983Z,997.5
2017-03-18T18:56:25.518Z,997.5
2017-03-18T18:57:27.357Z,997.5
2017-03-18T18:58:29.205Z,997.5
2017-03-18T18:59:31.100Z,997.5
2017-03-18T19:00:32.942Z,997.5
2017-03-18T19:01:34.788Z,997.6
2017-03-18T19:02:36.629Z,997.6
2017-03-18T19:03:38.477Z,997.5
2017-03-18T19:04:40.340Z,997.6
2017-03-18T19:05:42.183Z,997.7
2017-03-18T19:06:44.024Z,997.7
2017-03-18T19:07:45.882Z,997.7
2017-03-18T19:08:48.082Z,997.7
2017-03-18T19:09:50.615Z,997.7
2017-03-18T19:10:52.452Z,997.7
2017-03-18T19:11:54.639Z,997.7
2017-03-18T19:12:56.484Z,997.7
2017-03-18T19:13:58.669Z,997.8
2017-03-18T19:15:00.507Z,997.7
2017-03-18T19:16:02.341Z,997.8
2017-03-18T19:17:04.193Z,997.8
2017-03-18T19:18:06.037Z,997.8
2017-03-18T19:19:07.891Z,997.8
2017-03-18T19:20:09.749Z,997.8
2017-03-18T19:21:12.265Z,997.8
2017-03-18T19:22:14.114Z,997.9
2017-03-18T19:23:16.281Z,997.9
2017-03-18T19:24:18.134Z,997.9
2017-03-18T19:25:19.985Z,997.9
2017-03-18T19:26:21.821Z,997.9
2017-03-18T19:27:23.998Z,997.9
2017-03-18T19:28:26.207Z,997.9
2017-03-18T19:29:28.390Z,997.8
2017-03-18T19:30:30.228Z,997.8
2017-03-18T19:31:32.073Z,997.9
2017-03-18T19:32:33.910Z,997.9
2017-03-18T19:33:35.815Z,997.9
2017-03-18T19:34:37.997Z,997.9
2017-03-18T19:35:40.193Z,998
2017-03-18T19:36:42.020Z,997.9
2017-03-18T19:37:43.866Z,998
2017-03-18T19:38:46.084Z,998
2017-03-18T19:39:48.269Z,997.9
2017-03-18T19:40:50.108Z,998
2017-03-18T19:41:52.300Z,998
2017-03-18T19:42:54.479Z,998.1
2017-03-18T19:43:56.319Z,998.1
2017-03-18T19:44:58.841Z,998.1
2017-03-18T19:46:00.678Z,998.1
2017-03-18T19:47:02.533Z,998.1
2017-03-18T19:48:04.713Z,998.1
2017-03-18T19:49:06.902Z,998.1
2017-03-18T19:50:09.071Z,998.2
2017-03-18T19:51:10.916Z,998.2
2017-03-18T19:52:12.752Z,998.2
2017-03-18T19:53:14.627Z,998.3
2017-03-18T19:54:16.843Z,998.2
2017-03-18T19:55:19.041Z,998.2
2017-03-18T19:56:21.235Z,998.2
2017-03-18T19:57:23.074Z,998.2
2017-03-18T19:58:24.915Z,998.2
2017-03-18T19:59:27.110Z,998.2
2017-03-18T20:00:28.955Z,998.2
2017-03-18T20:01:30.794Z,998.2
2017-03-18T20:02:32.632Z,998.2
2017-03-18T20:03:34.476Z,998.3
2017-03-18T20:04:37.337Z,998.2
2017-03-18T20:05:39.172Z,998.2
2017-03-18T20:06:41.019Z,998.2
2017-03-18T20:07:42.858Z,998.3
2017-03-18T20:08:45.050Z,998.3
2017-03-18T20:09:47.220Z,998.3
2017-03-18T20:10:49.055Z,998.3
2017-03-18T20:11:50.904Z,998.3
2017-03-18T20:12:53.080Z,998.3
2017-03-18T20:13:55.592Z,998.4
2017-03-18T20:14:58.163Z,998.5
2017-03-18T20:16:00.143Z,998.4
2017-03-18T20:17:01.985Z,998.4
2017-03-18T20:18:03.817Z,998.4
2017-03-18T20:19:06.358Z,998.4
2017-03-18T20:20:09.224Z,998.4
2017-03-18T20:21:11.062Z,998.4
2017-03-18T20:22:12.907Z,998.4
2017-03-18T20:23:14.741Z,998.4
2017-03-18T20:24:16.665Z,998.4
2017-03-18T20:25:18.504Z,998.5
2017-03-18T20:26:20.392Z,998.5
2017-03-18T20:27:22.232Z,998.5
2017-03-18T20:28:24.139Z,998.5
2017-03-18T20:29:26.382Z,998.5
2017-03-18T20:30:29.363Z,998.6
2017-03-18T20:31:31.203Z,998.6
2017-03-18T20:32:33.043Z,998.6
2017-03-18T20:33:34.894Z,998.6
2017-03-18T20:34:37.089Z,998.6
2017-03-18T20:35:38.949Z,998.6
2017-03-18T20:36:41.154Z,998.6
2017-03-18T20:37:42.998Z,998.6
2017-03-18T20:38:45.760Z,998.6
2017-03-18T20:39:47.946Z,998.5
2017-03-18T20:40:49.788Z,998.6
2017-03-18T20:41:52.086Z,998.6
2017-03-18T20:42:55.640Z,998.6
2017-03-18T20:44:01.419Z,998.6
2017-03-18T20:45:03.507Z,998.6
2017-03-18T20:46:05.361Z,998.7
2017-03-18T20:47:07.237Z,998.7
2017-03-18T20:48:09.086Z,998.8
2017-03-18T20:49:11.285Z,998.8
2017-03-18T20:50:13.563Z,998.8
2017-03-18T20:51:15.748Z,998.8
2017-03-18T20:52:17.587Z,998.8
2017-03-18T20:53:19.779Z,998.8
2017-03-18T20:54:22.239Z,998.9
2017-03-18T20:55:24.767Z,998.9
2017-03-18T20:56:26.675Z,998.9
2017-03-18T20:57:28.551Z,998.9
2017-03-18T20:58:30.390Z,998.9
2017-03-18T20:59:32.900Z,998.9
2017-03-18T21:00:34.782Z,999
2017-03-18T21:01:36.637Z,998.9
2017-03-18T21:02:38.658Z,998.9
2017-03-18T21:03:40.882Z,999
2017-03-18T21:04:43.067Z,999
2017-03-18T21:05:44.986Z,999
2017-03-18T21:06:47.228Z,999
2017-03-18T21:07:49.181Z,999
2017-03-18T21:08:51.405Z,999.1
2017-03-18T21:09:53.258Z,999.1
2017-03-18T21:10:55.434Z,999.1
2017-03-18T21:11:57.273Z,999.1
2017-03-18T21:12:59.375Z,999.2
2017-03-18T21:14:01.578Z,999.2
2017-03-18T21:15:03.856Z,999.3
2017-03-18T21:16:05.692Z,999.3
2017-03-18T21:17:07.551Z,999.3
2017-03-18T21:18:09.740Z,999.3